Time;durP1;ratioP1;P1;durP2;ratioP2;P2;SDS_P1;SDS_P2;PMS_P1;PMS_P2;Temp;Humidity;BMP_temperature;BMP_pressure;BME280_temperature;BME280_humidity;BME280_pressure;Samples;Min_cycle;Max_cycle;Signal;HPM_P1;HPM_P2
2022/04/12 00:01:04;;;;;;;13.10;6.25;;;5.80;99.90;;;;;;5072698;28;20082;-79
2022/04/12 00:03:30;;;;;;;9.82;5.32;;;5.80;99.90;;;;;;5072448;28;20081;-79
2022/04/12 00:05:56;;;;;;;10.80;5.53;;;5.70;99.90;;;;;;5072477;28;20078;-79
2022/04/12 00:08:22;;;;;;;11.35;5.32;;;5.70;99.90;;;;;;5072547;28;20048;-78
2022/04/12 00:10:48;;;;;;;11.25;5.65;;;5.70;99.90;;;;;;5073774;28;20037;-78
2022/04/12 00:13:14;;;;;;;12.75;5.15;;;5.60;99.90;;;;;;5072235;28;20047;-78
2022/04/12 00:15:40;;;;;;;13.27;5.43;;;5.60;99.90;;;;;;5072533;28;20044;-78
2022/04/12 00:20:53;;;;;;;10.48;4.75;;;5.60;99.90;;;;;;5072317;28;20453;-78
2022/04/12 00:23:19;;;;;;;12.07;5.60;;;5.50;99.90;;;;;;5072149;28;20048;-79
2022/04/12 00:25:45;;;;;;;10.95;5.57;;;5.60;99.90;;;;;;5074340;28;20111;-78
2022/04/12 00:28:12;;;;;;;10.93;5.40;;;5.60;99.90;;;;;;5076553;28;20375;-78
2022/04/12 00:30:38;;;;;;;12.38;6.05;;;5.60;99.90;;;;;;5076194;28;20498;-78
2022/04/12 00:33:03;;;;;;;9.60;4.75;;;5.60;99.90;;;;;;5076469;28;20044;-78
2022/04/12 00:35:29;;;;;;;15.23;7.18;;;5.60;99.90;;;;;;5076073;28;20380;-78
2022/04/12 00:37:56;;;;;;;11.50;5.68;;;5.50;99.90;;;;;;5076012;28;20486;-79
2022/04/12 00:40:26;;;;;;;10.27;5.93;;;5.50;99.90;;;;;;5076322;28;20380;-78
2022/04/12 00:42:52;;;;;;;14.07;5.40;;;5.50;99.90;;;;;;5076348;28;20394;-78
2022/04/12 00:45:18;;;;;;;10.32;5.97;;;5.60;99.90;;;;;;5075717;28;20086;-78
2022/04/12 00:47:44;;;;;;;12.05;6.25;;;5.60;99.90;;;;;;5075817;28;20040;-79
2022/04/12 00:50:11;;;;;;;13.98;6.50;;;5.60;99.90;;;;;;5075658;28;20044;-78
2022/04/12 00:52:41;;;;;;;12.02;5.53;;;5.60;99.90;;;;;;5075700;28;20486;-78
2022/04/12 00:55:07;;;;;;;13.82;5.95;;;6.00;99.90;;;;;;5075876;28;20070;-78
2022/04/12 00:57:34;;;;;;;11.88;6.00;;;5.60;99.90;;;;;;5075695;28;20090;-78
2022/04/12 01:00:00;;;;;;;19.00;6.75;;;5.60;99.90;;;;;;5075734;28;20051;-78
2022/04/12 01:02:26;;;;;;;10.70;5.32;;;5.60;99.90;;;;;;5076093;28;20403;-78
2022/04/12 01:04:52;;;;;;;12.07;6.15;;;5.50;99.90;;;;;;5075345;28;20044;-79
2022/04/12 01:07:18;;;;;;;10.15;5.47;;;5.50;99.90;;;;;;5075719;28;20201;-78
2022/04/12 01:09:45;;;;;;;13.18;6.45;;;5.40;99.90;;;;;;5075366;28;20506;-78
2022/04/12 01:12:11;;;;;;;12.73;5.65;;;5.30;99.90;;;;;;5074371;28;20509;-78
2022/04/12 01:14:37;;;;;;;14.15;7.13;;;5.30;99.90;;;;;;5075693;28;20039;-78
2022/04/12 01:17:07;;;;;;;10.93;5.53;;;5.30;99.90;;;;;;5075310;28;20040;-78
2022/04/12 01:19:33;;;;;;;10.43;5.85;;;5.40;99.90;;;;;;5075597;28;20037;-78
2022/04/12 01:22:05;;;;;;;14.57;6.10;;;5.30;99.90;;;;;;5075469;28;20037;-78
2022/04/12 01:24:32;;;;;;;11.15;5.50;;;5.30;99.90;;;;;;5075385;28;20111;-79
2022/04/12 01:26:58;;;;;;;11.07;6.25;;;5.30;99.90;;;;;;5075078;28;20055;-79
2022/04/12 01:29:25;;;;;;;13.88;6.05;;;5.30;99.90;;;;;;5075255;28;20083;-78
2022/04/12 01:31:51;;;;;;;10.90;6.07;;;5.20;99.90;;;;;;5075325;28;20032;-78
2022/04/12 01:34:16;;;;;;;10.75;5.90;;;5.20;99.90;;;;;;5075317;28;20371;-78
2022/04/12 01:36:42;;;;;;;13.43;5.97;;;5.10;99.90;;;;;;5074753;28;20119;-78
2022/04/12 01:39:08;;;;;;;12.20;6.18;;;5.10;99.90;;;;;;5075191;28;20090;-78
2022/04/12 01:41:33;;;;;;;15.13;7.55;;;5.20;99.90;;;;;;5074859;28;20086;-78
2022/04/12 01:44:01;;;;;;;15.18;6.32;;;5.20;99.90;;;;;;5073632;28;20079;-77
2022/04/12 01:46:27;;;;;;;14.75;7.10;;;5.10;99.90;;;;;;5073920;28;20055;-78
2022/04/12 01:48:52;;;;;;;12.07;6.03;;;5.10;99.90;;;;;;5074729;28;20036;-78
2022/04/12 01:51:18;;;;;;;11.32;6.22;;;5.10;99.90;;;;;;5074755;28;20037;-78
2022/04/12 01:53:44;;;;;;;14.43;7.25;;;5.10;99.90;;;;;;5074926;28;20072;-78
2022/04/12 01:56:10;;;;;;;11.50;7.13;;;5.00;99.90;;;;;;5074623;28;20044;-78
2022/04/12 01:58:36;;;;;;;16.23;7.78;;;5.10;99.90;;;;;;5074787;28;20040;-78
2022/04/12 02:01:02;;;;;;;23.63;9.23;;;5.10;99.90;;;;;;5074687;28;20089;-79
2022/04/12 02:03:28;;;;;;;12.82;6.90;;;5.10;99.90;;;;;;5074231;28;20055;-78
2022/04/12 02:05:54;;;;;;;12.15;6.40;;;5.00;99.90;;;;;;5074607;28;20056;-78
2022/04/12 02:08:21;;;;;;;11.40;6.43;;;5.00;99.90;;;;;;5074723;28;20071;-79
2022/04/12 02:10:46;;;;;;;13.25;8.15;;;4.90;99.90;;;;;;5074472;28;20052;-78
2022/04/12 02:13:12;;;;;;;15.02;6.93;;;4.90;99.90;;;;;;5074693;28;20048;-78
2022/04/12 02:15:37;;;;;;;16.05;7.15;;;4.90;99.90;;;;;;5074254;28;20616;-78
2022/04/12 02:18:03;;;;;;;15.65;8.77;;;4.90;99.90;;;;;;5074170;28;20059;-79
2022/04/12 02:20:29;;;;;;;16.77;8.40;;;4.90;99.90;;;;;;5074370;28;20459;-78
2022/04/12 02:22:54;;;;;;;13.35;7.63;;;4.80;99.90;;;;;;5076737;28;20526;-78
2022/04/12 02:25:20;;;;;;;13.98;6.80;;;4.70;99.90;;;;;;5073954;28;20470;-79
2022/04/12 02:27:45;;;;;;;16.75;8.40;;;4.70;99.90;;;;;;5074175;28;20376;-78
2022/04/12 02:30:15;;;;;;;11.98;7.38;;;4.70;99.90;;;;;;5074040;28;20380;-79
2022/04/12 02:32:41;;;;;;;14.77;7.43;;;4.70;99.90;;;;;;5073919;28;20041;-78
2022/04/12 02:35:07;;;;;;;13.70;7.43;;;4.70;99.90;;;;;;5073753;28;20072;-78
2022/04/12 02:37:32;;;;;;;13.50;7.50;;;4.70;99.90;;;;;;5073661;28;20037;-78
2022/04/12 02:39:58;;;;;;;13.13;6.80;;;4.50;99.90;;;;;;5073721;28;20051;-78
2022/04/12 02:42:23;;;;;;;15.77;8.20;;;4.70;99.90;;;;;;5074301;28;20040;-78
2022/04/12 02:44:49;;;;;;;12.40;8.23;;;4.60;99.90;;;;;;5073576;28;20055;-78
2022/04/12 02:47:14;;;;;;;16.10;7.55;;;4.50;99.90;;;;;;5073264;28;20125;-78
2022/04/12 02:49:40;;;;;;;11.95;7.53;;;4.50;99.90;;;;;;5073214;28;20042;-78
2022/04/12 02:52:07;;;;;;;14.48;7.63;;;4.50;99.90;;;;;;5073533;28;20044;-78
2022/04/12 02:54:32;;;;;;;15.40;7.88;;;4.50;99.90;;;;;;5073505;28;20119;-78
2022/04/12 02:56:58;;;;;;;14.35;8.55;;;4.50;99.90;;;;;;5073443;28;20128;-78
2022/04/12 02:59:24;;;;;;;15.77;7.88;;;4.50;99.90;;;;;;5073245;28;20047;-78
2022/04/12 03:01:49;;;;;;;17.83;8.10;;;4.40;99.90;;;;;;5073155;28;20475;-78
2022/04/12 03:04:15;;;;;;;19.15;9.05;;;4.40;99.90;;;;;;5073090;28;20526;-79
2022/04/12 03:06:40;;;;;;;14.70;7.38;;;4.50;99.90;;;;;;5073116;28;20055;-79
2022/04/12 03:09:06;;;;;;;20.88;8.45;;;4.40;99.90;;;;;;5073214;28;20051;-78
2022/04/12 03:11:31;;;;;;;13.60;8.07;;;4.40;99.90;;;;;;5071673;28;20044;-78
2022/04/12 03:13:57;;;;;;;18.80;8.93;;;4.40;99.90;;;;;;5073111;28;20109;-79
2022/04/12 03:16:22;;;;;;;13.60;8.57;;;4.30;99.90;;;;;;5072980;28;20510;-78
2022/04/12 03:18:48;;;;;;;12.23;7.80;;;4.30;99.90;;;;;;5073277;28;20045;-78
2022/04/12 03:21:13;;;;;;;13.60;8.23;;;4.30;99.90;;;;;;5072973;28;20037;-78
2022/04/12 03:23:39;;;;;;;15.77;9.27;;;4.20;99.90;;;;;;5071745;28;20052;-78
2022/04/12 03:26:04;;;;;;;13.88;8.35;;;4.20;99.90;;;;;;5072796;28;20036;-78
2022/04/12 03:28:30;;;;;;;18.98;9.43;;;4.20;99.90;;;;;;5072876;28;20097;-78
2022/04/12 03:30:55;;;;;;;14.98;9.23;;;4.00;99.90;;;;;;5071778;28;20094;-78
2022/04/12 03:33:21;;;;;;;15.73;9.40;;;4.00;99.90;;;;;;5072796;28;20040;-78
2022/04/12 03:35:46;;;;;;;16.92;8.70;;;4.00;99.90;;;;;;5071705;28;20044;-78
2022/04/12 03:38:14;;;;;;;20.60;10.82;;;4.00;99.90;;;;;;5073005;28;20071;-78
2022/04/12 03:40:41;;;;;;;14.27;9.65;;;4.00;99.90;;;;;;5072535;28;20051;-78
2022/04/12 03:43:07;;;;;;;18.52;9.07;;;3.90;99.90;;;;;;5072740;28;20049;-78
2022/04/12 03:45:33;;;;;;;18.55;8.50;;;4.00;99.90;;;;;;5072475;28;20548;-78
2022/04/12 03:47:59;;;;;;;17.95;9.05;;;3.90;99.90;;;;;;5071485;28;20612;-78
2022/04/12 03:50:25;;;;;;;18.63;9.75;;;3.90;99.90;;;;;;5072642;28;20086;-79
2022/04/12 03:52:52;;;;;;;16.08;8.85;;;3.90;99.90;;;;;;5072878;28;20107;-78
2022/04/12 03:55:30;;;;;;;18.27;10.45;;;4.10;99.90;;;;;;5072493;28;20085;-78
2022/04/12 03:58:19;;;;;;;19.92;9.80;;;4.00;99.90;;;;;;5072614;28;20040;-79
2022/04/12 04:00:45;;;;;;;20.92;10.48;;;4.00;99.90;;;;;;5072646;28;20040;-79
2022/04/12 04:03:11;;;;;;;16.85;10.23;;;4.00;99.90;;;;;;5072310;28;20048;-79
2022/04/12 04:05:36;;;;;;;21.70;10.35;;;4.10;99.90;;;;;;5071102;28;20044;-78
2022/04/12 04:08:02;;;;;;;16.08;9.88;;;4.00;99.90;;;;;;5072578;28;20044;-79
2022/04/12 04:10:27;;;;;;;18.40;10.20;;;3.90;99.90;;;;;;5072335;28;20049;-79
2022/04/12 04:12:53;;;;;;;17.27;10.45;;;3.90;99.90;;;;;;5072587;28;20033;-78
2022/04/12 04:15:19;;;;;;;17.77;10.60;;;4.00;99.90;;;;;;5072435;28;20414;-79
2022/04/12 04:17:46;;;;;;;18.33;9.77;;;4.00;99.90;;;;;;5071018;28;20047;-78
2022/04/12 04:20:16;;;;;;;16.40;10.05;;;4.00;99.90;;;;;;5070901;28;20072;-78
2022/04/12 04:22:42;;;;;;;22.83;11.82;;;4.10;99.90;;;;;;5071425;28;20044;-78
2022/04/12 04:25:10;;;;;;;17.92;10.50;;;4.10;99.90;;;;;;5072070;28;20043;-78
2022/04/12 04:27:36;;;;;;;19.77;12.07;;;4.00;99.90;;;;;;5072237;28;20563;-78
2022/04/12 04:30:04;;;;;;;16.20;10.45;;;3.90;99.90;;;;;;5072298;28;20040;-78
2022/04/12 04:32:30;;;;;;;18.17;11.25;;;3.80;99.90;;;;;;5072241;28;20052;-79
2022/04/12 04:34:55;;;;;;;21.02;11.18;;;3.80;99.90;;;;;;5072168;28;20410;-79
2022/04/12 04:37:21;;;;;;;18.38;10.02;;;3.80;99.90;;;;;;5070959;28;20050;-78
2022/04/12 04:39:47;;;;;;;16.85;10.75;;;3.80;99.90;;;;;;5072039;28;20431;-79
2022/04/12 04:42:12;;;;;;;16.60;10.15;;;3.80;99.90;;;;;;5072286;28;20076;-78
2022/04/12 04:44:38;;;;;;;15.98;10.35;;;3.80;99.90;;;;;;5071989;28;20048;-79
2022/04/12 04:47:04;;;;;;;21.00;11.48;;;3.80;99.90;;;;;;5070692;28;20052;-79
2022/04/12 04:49:29;;;;;;;18.80;10.95;;;3.80;99.90;;;;;;5071975;28;20032;-78
2022/04/12 04:51:55;;;;;;;16.95;10.55;;;3.80;99.90;;;;;;5071913;28;20048;-78
2022/04/12 04:54:20;;;;;;;20.20;10.38;;;3.80;99.90;;;;;;5071738;28;20055;-78
2022/04/12 04:56:46;;;;;;;14.70;9.77;;;3.80;99.90;;;;;;5071775;28;20041;-78
2022/04/12 04:59:12;;;;;;;21.48;10.52;;;3.90;99.90;;;;;;5054215;28;20059;-78
2022/04/12 05:01:38;;;;;;;19.02;10.50;;;3.90;99.90;;;;;;5072072;28;20045;-78
2022/04/12 05:04:04;;;;;;;20.13;10.18;;;3.90;99.90;;;;;;5071656;28;20059;-78
2022/04/12 05:06:29;;;;;;;19.35;11.35;;;3.90;99.90;;;;;;5071770;28;20485;-78
2022/04/12 05:08:55;;;;;;;18.70;10.50;;;3.80;99.90;;;;;;5071715;28;20047;-78
2022/04/12 05:11:21;;;;;;;22.10;11.05;;;3.90;99.90;;;;;;5073009;28;20461;-78
2022/04/12 05:13:46;;;;;;;20.35;11.02;;;3.90;99.90;;;;;;5075435;28;20509;-78
2022/04/12 05:16:12;;;;;;;15.95;10.35;;;3.90;99.90;;;;;;5075476;28;20082;-78
2022/04/12 05:18:38;;;;;;;19.15;11.57;;;3.80;99.90;;;;;;5075246;28;20040;-78
2022/04/12 05:21:03;;;;;;;19.48;11.32;;;3.80;99.90;;;;;;5057172;28;20052;-79
2022/04/12 05:23:29;;;;;;;20.95;10.85;;;3.90;99.90;;;;;;5075408;28;20040;-79
2022/04/12 05:25:55;;;;;;;20.30;11.20;;;3.80;99.90;;;;;;5075099;28;20080;-78
2022/04/12 05:28:21;;;;;;;24.95;11.60;;;3.80;99.90;;;;;;5073854;28;20063;-78
2022/04/12 05:30:47;;;;;;;21.77;11.43;;;3.90;99.90;;;;;;5075045;28;20501;-78
2022/04/12 05:33:13;;;;;;;19.25;11.05;;;4.00;99.90;;;;;;5075056;28;20075;-78
2022/04/12 05:35:39;;;;;;;17.90;11.70;;;4.20;99.90;;;;;;5075013;28;20107;-78
2022/04/12 05:38:06;;;;;;;17.95;11.13;;;4.30;99.90;;;;;;5075215;28;20044;-78
2022/04/12 05:40:33;;;;;;;21.42;11.35;;;4.50;99.90;;;;;;5074800;28;20494;-78
2022/04/12 05:42:58;;;;;;;18.65;10.45;;;4.70;99.90;;;;;;5074939;28;20091;-79
2022/04/12 05:45:24;;;;;;;21.17;10.35;;;5.00;99.90;;;;;;5074586;28;20475;-78
2022/04/12 05:47:51;;;;;;;19.70;10.48;;;5.20;99.90;;;;;;5074728;28;20047;-79
2022/04/12 05:50:20;;;;;;;16.33;9.93;;;5.40;99.90;;;;;;5074654;28;20044;-78
2022/04/12 05:52:46;;;;;;;16.85;10.10;;;5.70;99.90;;;;;;5074924;28;20047;-78
2022/04/12 05:55:17;;;;;;;17.65;9.32;;;5.90;99.90;;;;;;5074811;28;20101;-78
2022/04/12 05:57:56;;;;;;;17.33;9.98;;;6.10;99.90;;;;;;5074921;28;20036;-78
2022/04/12 06:00:23;;;;;;;16.27;9.30;;;6.30;99.90;;;;;;5074671;28;20052;-79
2022/04/12 06:02:51;;;;;;;14.32;9.52;;;6.40;99.90;;;;;;5073537;28;20091;-79
2022/04/12 06:05:18;;;;;;;19.20;9.77;;;6.40;99.90;;;;;;5074287;28;20060;-79
2022/04/12 06:07:44;;;;;;;14.82;9.70;;;6.40;99.90;;;;;;5074703;28;20040;-79
2022/04/12 06:10:11;;;;;;;16.00;9.60;;;6.40;99.90;;;;;;5074168;28;20048;-79
2022/04/12 06:12:38;;;;;;;20.77;9.43;;;6.50;99.90;;;;;;5074369;28;20065;-78
2022/04/12 06:15:04;;;;;;;16.08;9.50;;;6.40;99.90;;;;;;5073100;28;20040;-79
2022/04/12 06:17:31;;;;;;;14.68;8.35;;;6.50;99.90;;;;;;5074281;28;20052;-79
2022/04/12 06:20:08;;;;;;;17.85;9.63;;;6.60;99.90;;;;;;5072775;28;20633;-79
2022/04/12 06:22:34;;;;;;;14.68;8.48;;;6.60;99.90;;;;;;5073985;28;20430;-79
2022/04/12 06:25:00;;;;;;;17.42;9.90;;;6.70;99.90;;;;;;5073953;28;20040;-79
2022/04/12 06:27:51;;;;;;;19.92;9.23;;;6.80;99.90;;;;;;5074052;28;20528;-79
2022/04/12 06:30:22;;;;;;;17.50;9.75;;;6.90;99.90;;;;;;5073992;28;20044;-79
2022/04/12 06:32:48;;;;;;;19.73;11.10;;;7.00;99.90;;;;;;5072937;28;20044;-79
2022/04/12 06:35:17;;;;;;;15.10;8.65;;;7.10;99.90;;;;;;5073902;28;20051;-79
2022/04/12 06:37:44;;;;;;;15.45;8.88;;;7.10;99.90;;;;;;5073847;28;20451;-78
2022/04/12 06:40:12;;;;;;;14.85;9.48;;;7.10;99.90;;;;;;5073719;28;20116;-79
2022/04/12 06:42:37;;;;;;;15.00;9.70;;;7.10;99.90;;;;;;5073624;28;20036;-79
2022/04/12 06:45:04;;;;;;;16.92;8.73;;;7.10;99.90;;;;;;5073575;28;20044;-79
2022/04/12 06:47:32;;;;;;;13.27;8.02;;;7.20;99.90;;;;;;5072337;28;20098;-78
2022/04/12 06:49:57;;;;;;;18.58;10.32;;;7.20;99.90;;;;;;5072516;28;20407;-79
2022/04/12 06:52:23;;;;;;;17.45;9.82;;;7.30;99.90;;;;;;5073369;28;20042;-79
2022/04/12 06:54:49;;;;;;;19.63;9.68;;;7.40;99.90;;;;;;5073294;28;20123;-79
2022/04/12 06:57:16;;;;;;;15.15;8.75;;;7.50;99.90;;;;;;5073609;28;20044;-80
2022/04/12 06:59:41;;;;;;;18.30;10.70;;;7.60;99.90;;;;;;5073505;28;20048;-79
2022/04/12 07:02:07;;;;;;;14.55;9.13;;;7.70;99.90;;;;;;5073156;28;20410;-78
2022/04/12 07:04:33;;;;;;;14.13;9.55;;;7.70;99.90;;;;;;5072984;28;20059;-79
2022/04/12 07:06:59;;;;;;;16.40;9.27;;;7.70;99.90;;;;;;5073252;28;20080;-79
2022/04/12 07:09:29;;;;;;;14.48;8.90;;;7.80;99.90;;;;;;5073541;28;20041;-79
2022/04/12 07:11:59;;;;;;;14.35;10.20;;;7.80;99.90;;;;;;5072943;28;20044;-79
2022/04/12 07:14:26;;;;;;;15.27;8.48;;;7.70;99.90;;;;;;5073424;28;20040;-79
2022/04/12 07:16:52;;;;;;;13.88;9.40;;;7.80;99.90;;;;;;5073163;28;20055;-78
2022/04/12 07:19:18;;;;;;;17.85;8.73;;;7.90;99.90;;;;;;5071755;28;20032;-79
2022/04/12 07:21:43;;;;;;;17.00;8.73;;;7.90;99.90;;;;;;5072857;28;20083;-79
2022/04/12 07:24:09;;;;;;;12.95;8.68;;;8.10;99.90;;;;;;5071498;28;20174;-79
2022/04/12 07:26:36;;;;;;;17.58;9.13;;;8.30;99.90;;;;;;5071840;28;20424;-79
2022/04/12 07:29:03;;;;;;;16.65;9.38;;;8.60;99.90;;;;;;5072998;28;20049;-79
2022/04/12 07:31:29;;;;;;;15.00;9.20;;;9.20;99.90;;;;;;5073148;28;20040;-79
2022/04/12 07:33:54;;;;;;;16.52;9.43;;;9.80;99.90;;;;;;5071311;28;20445;-79
2022/04/12 07:36:20;;;;;;;14.60;9.05;;;10.00;99.90;;;;;;5072516;28;20044;-79
2022/04/12 07:38:48;;;;;;;10.73;7.05;;;10.30;99.90;;;;;;5054598;28;20060;-79
2022/04/12 07:41:15;;;;;;;18.15;9.35;;;10.40;99.90;;;;;;5071364;28;20123;-78
2022/04/12 07:43:42;;;;;;;17.70;9.18;;;10.50;99.90;;;;;;5072658;28;20041;-80
2022/04/12 07:46:08;;;;;;;17.80;8.05;;;10.50;99.90;;;;;;5072573;28;20437;-79
2022/04/12 07:48:33;;;;;;;15.50;8.15;;;10.80;99.90;;;;;;5071676;28;20040;-79
2022/04/12 07:50:59;;;;;;;15.45;8.43;;;10.90;98.40;;;;;;5072540;28;20048;-79
2022/04/12 07:53:25;;;;;;;14.90;9.52;;;11.20;95.90;;;;;;5072834;28;20041;-79
2022/04/12 07:55:50;;;;;;;16.23;9.07;;;11.10;95.40;;;;;;5071370;28;20037;-80
2022/04/12 07:58:16;;;;;;;13.02;9.10;;;11.60;94.10;;;;;;5071742;28;20123;-79
2022/04/12 08:00:42;;;;;;;15.85;9.57;;;11.40;92.30;;;;;;5071291;28;20043;-80
2022/04/12 08:03:07;;;;;;;15.23;8.07;;;11.80;93.60;;;;;;5072400;28;20040;-79
2022/04/12 08:05:34;;;;;;;12.35;7.90;;;12.50;85.10;;;;;;5072361;28;20055;-79
2022/04/12 08:08:00;;;;;;;14.93;9.25;;;12.00;83.70;;;;;;5073123;28;20048;-79
2022/04/12 08:10:25;;;;;;;12.85;8.20;;;12.30;86.40;;;;;;5071812;28;20044;-79
2022/04/12 08:12:52;;;;;;;13.82;8.80;;;12.60;83.80;;;;;;5073336;28;20471;-80
2022/04/12 08:15:18;;;;;;;13.20;8.75;;;12.80;79.50;;;;;;5072875;28;20048;-80
2022/04/12 08:17:44;;;;;;;12.98;8.13;;;13.30;80.80;;;;;;5072548;28;20047;-80
2022/04/12 08:20:10;;;;;;;13.15;7.47;;;13.50;68.00;;;;;;5071852;28;20037;-80
2022/04/12 08:22:36;;;;;;;15.30;8.82;;;13.20;69.20;;;;;;5072469;28;20036;-80
2022/04/12 08:25:03;;;;;;;16.25;7.82;;;13.30;66.30;;;;;;5072197;28;20123;-80
2022/04/12 08:27:29;;;;;;;14.77;7.72;;;13.40;71.70;;;;;;5071019;28;20075;-80
2022/04/12 08:29:55;;;;;;;12.30;7.40;;;13.90;55.60;;;;;;5072487;28;20037;-80
2022/04/12 08:32:21;;;;;;;13.75;8.70;;;13.70;58.10;;;;;;5072136;28;20380;-80
2022/04/12 08:34:47;;;;;;;15.10;7.65;;;13.80;62.40;;;;;;5072227;28;20053;-80
2022/04/12 08:37:12;;;;;;;13.55;7.32;;;14.20;57.60;;;;;;5072013;28;20037;-80
2022/04/12 08:39:38;;;;;;;11.07;6.88;;;14.50;46.80;;;;;;5070954;28;20048;-80
2022/04/12 08:42:05;;;;;;;16.50;8.90;;;14.10;46.20;;;;;;5054055;28;20071;-80
2022/04/12 08:44:33;;;;;;;11.45;7.63;;;13.70;51.90;;;;;;5071894;28;20052;-80
2022/04/12 08:47:02;;;;;;;16.02;7.88;;;13.50;58.70;;;;;;5074455;28;20048;-79
2022/04/12 08:49:29;;;;;;;12.65;8.02;;;14.00;55.10;;;;;;5075824;28;20040;-80
2022/04/12 08:51:54;;;;;;;11.50;7.78;;;14.00;57.30;;;;;;5074305;28;20041;-79
2022/04/12 08:54:21;;;;;;;12.65;8.05;;;14.20;48.90;;;;;;5075870;28;20097;-80
2022/04/12 08:56:49;;;;;;;14.18;8.32;;;14.40;53.80;;;;;;5074373;28;20512;-80
2022/04/12 08:59:16;;;;;;;12.52;8.00;;;14.50;57.20;;;;;;5075670;28;20482;-79
2022/04/12 09:01:42;;;;;;;14.05;7.43;;;14.90;49.30;;;;;;5075720;28;20040;-80
2022/04/12 09:04:08;;;;;;;12.75;7.85;;;15.30;43.60;;;;;;5075813;28;20049;-80
2022/04/12 09:06:35;;;;;;;12.02;7.07;;;15.50;38.30;;;;;;5075483;28;20101;-80
2022/04/12 09:09:20;;;;;;;12.05;7.47;;;15.00;38.00;;;;;;5075384;28;20052;-79
2022/04/12 09:12:18;;;;;;;10.80;6.30;;;14.80;37.80;;;;;;5075560;28;20048;-79
2022/04/12 09:14:57;;;;;;;15.63;7.78;;;14.90;44.00;;;;;;5063221;28;20063;-80
2022/04/12 09:17:35;;;;;;;14.32;7.65;;;15.10;45.10;;;;;;5074909;28;20044;-79
2022/04/12 09:20:03;;;;;;;13.32;7.45;;;15.00;42.80;;;;;;5075216;28;20512;-79
2022/04/12 09:22:31;;;;;;;12.90;7.45;;;14.90;45.60;;;;;;5076210;28;20040;-79
2022/04/12 09:25:02;;;;;;;13.45;7.18;;;15.00;46.00;;;;;;5075358;28;20398;-79
2022/04/12 09:27:33;;;;;;;13.90;6.88;;;14.70;44.30;;;;;;5075473;28;20041;-79
2022/04/12 09:30:02;;;;;;;11.32;7.30;;;14.80;46.20;;;;;;5075358;28;20051;-79
2022/04/12 09:32:30;;;;;;;17.65;8.77;;;15.00;45.10;;;;;;5075234;28;20049;-79
2022/04/12 09:34:57;;;;;;;11.82;7.65;;;15.50;47.20;;;;;;5075141;28;20045;-79
2022/04/12 09:37:35;;;;;;;12.25;7.45;;;16.00;40.00;;;;;;5074923;28;20045;-79
2022/04/12 09:40:01;;;;;;;17.77;7.50;;;16.50;33.20;;;;;;5077392;28;20099;-79
2022/04/12 09:42:43;;;;;;;11.43;7.25;;;16.70;37.00;;;;;;5075218;28;20519;-79
2022/04/12 09:45:14;;;;;;;13.77;8.57;;;16.20;31.90;;;;;;5074832;28;20052;-79
2022/04/12 09:47:41;;;;;;;11.65;7.68;;;16.50;31.80;;;;;;5075190;28;20040;-79
2022/04/12 09:50:08;;;;;;;11.77;7.28;;;16.00;35.20;;;;;;5073510;28;20045;-80
2022/04/12 09:52:34;;;;;;;11.65;7.55;;;16.40;36.10;;;;;;5075095;28;20364;-79
2022/04/12 09:55:00;;;;;;;11.05;7.38;;;16.50;38.20;;;;;;5074701;28;20089;-79
2022/04/12 09:57:26;;;;;;;12.20;7.93;;;16.60;34.20;;;;;;5074524;28;20089;-80
2022/04/12 09:59:56;;;;;;;12.93;8.68;;;16.30;31.50;;;;;;5074983;28;20111;-79
2022/04/12 10:02:26;;;;;;;13.18;8.68;;;15.90;38.40;;;;;;5073559;28;20052;-79
2022/04/12 10:04:54;;;;;;;12.30;7.78;;;16.00;45.20;;;;;;5073154;28;20051;-79
2022/04/12 10:07:26;;;;;;;15.00;7.80;;;16.00;36.40;;;;;;5074563;28;20056;-79
2022/04/12 10:09:52;;;;;;;12.57;8.02;;;16.30;41.50;;;;;;5074457;28;20589;-79
2022/04/12 10:12:19;;;;;;;13.45;6.82;;;16.70;40.50;;;;;;5075264;28;20439;-79
2022/04/12 10:14:46;;;;;;;11.65;7.28;;;17.00;34.80;;;;;;5073091;28;20044;-80
2022/04/12 10:17:13;;;;;;;13.93;8.50;;;17.10;30.80;;;;;;5074623;28;20055;-80
2022/04/12 10:19:40;;;;;;;14.27;8.20;;;17.60;26.20;;;;;;5074322;28;20053;-80
2022/04/12 10:22:06;;;;;;;13.07;8.18;;;17.90;25.90;;;;;;5074575;28;20043;-80
2022/04/12 10:24:33;;;;;;;13.68;8.27;;;17.80;24.80;;;;;;5074223;28;20036;-79
2022/04/12 10:26:59;;;;;;;12.73;8.10;;;17.80;25.80;;;;;;5073643;28;20094;-79
2022/04/12 10:29:40;;;;;;;10.77;7.43;;;17.40;29.20;;;;;;5074856;28;20068;-79
2022/04/12 10:32:12;;;;;;;13.32;7.45;;;17.20;31.00;;;;;;5074424;28;20046;-79
2022/04/12 10:34:58;;;;;;;11.88;7.03;;;17.10;26.20;;;;;;5074102;28;20544;-79
2022/04/12 10:37:24;;;;;;;12.38;7.30;;;16.60;28.60;;;;;;5072931;28;20059;-79
2022/04/12 10:39:59;;;;;;;13.73;7.95;;;16.60;36.10;;;;;;5074089;28;20041;-79
2022/04/12 10:42:29;;;;;;;12.90;7.30;;;16.70;35.30;;;;;;5072950;28;20491;-79
2022/04/12 10:44:56;;;;;;;12.65;7.78;;;16.70;31.50;;;;;;5074156;28;20098;-79
2022/04/12 10:47:34;;;;;;;11.75;7.85;;;16.70;28.20;;;;;;5073993;28;20044;-79
2022/04/12 10:50:04;;;;;;;17.55;7.22;;;16.90;29.60;;;;;;5072665;28;20051;-79
2022/04/12 10:52:33;;;;;;;13.57;7.97;;;17.10;27.40;;;;;;5073665;28;20041;-79
2022/04/12 10:55:01;;;;;;;13.73;7.72;;;17.50;26.80;;;;;;5073916;28;20044;-79
2022/04/12 10:57:26;;;;;;;12.38;7.30;;;17.50;25.90;;;;;;5073753;28;20052;-79
2022/04/12 11:00:04;;;;;;;12.10;7.90;;;17.80;26.10;;;;;;5072328;28;20041;-79
2022/04/12 11:02:36;;;;;;;11.98;7.65;;;17.70;26.40;;;;;;5073532;28;20051;-79
2022/04/12 11:05:02;;;;;;;11.95;7.10;;;17.70;26.50;;;;;;5071796;28;20072;-80
2022/04/12 11:07:37;;;;;;;12.32;7.93;;;17.90;25.80;;;;;;5073344;28;20509;-80
2022/04/12 11:10:11;;;;;;;13.35;8.80;;;18.20;25.20;;;;;;5072688;28;20059;-78
2022/04/12 11:12:44;;;;;;;13.90;7.13;;;18.10;24.00;;;;;;5072086;28;20179;-78
2022/04/12 11:15:23;;;;;;;16.25;7.55;;;18.20;24.80;;;;;;5071840;28;20059;-78
2022/04/12 11:18:03;;;;;;;14.63;7.93;;;18.50;25.20;;;;;;5073896;28;20040;-78
2022/04/12 11:20:29;;;;;;;13.32;7.50;;;18.70;22.80;;;;;;5073087;28;20051;-79
2022/04/12 11:22:59;;;;;;;16.08;7.70;;;18.90;22.00;;;;;;5073621;28;20124;-79
2022/04/12 11:25:28;;;;;;;14.07;8.45;;;19.10;21.30;;;;;;5073338;28;20437;-79
2022/04/12 11:27:58;;;;;;;12.65;7.85;;;19.10;20.40;;;;;;5072143;28;20098;-78
2022/04/12 11:30:28;;;;;;;10.95;7.25;;;19.20;20.20;;;;;;5073690;28;20429;-78
2022/04/12 11:32:56;;;;;;;11.98;8.35;;;19.60;19.20;;;;;;5074778;28;20037;-78
2022/04/12 11:35:23;;;;;;;11.18;7.82;;;19.50;18.10;;;;;;5072994;28;20044;-79
2022/04/12 11:37:50;;;;;;;13.00;7.90;;;19.30;18.90;;;;;;5072804;28;20049;-79
2022/04/12 11:40:16;;;;;;;10.93;7.32;;;19.80;21.30;;;;;;5071402;28;20107;-79
2022/04/12 11:42:43;;;;;;;10.35;7.22;;;19.90;18.30;;;;;;5073048;28;20503;-79
2022/04/12 11:45:10;;;;;;;10.02;6.78;;;20.10;20.10;;;;;;5073647;28;20055;-79
2022/04/12 11:47:39;;;;;;;12.15;7.57;;;20.30;16.60;;;;;;5073334;28;20403;-79
2022/04/12 11:50:17;;;;;;;11.43;7.53;;;19.90;15.40;;;;;;5074485;28;20106;-79
2022/04/12 11:52:45;;;;;;;11.27;7.15;;;19.90;15.90;;;;;;5072970;28;20043;-79
2022/04/12 11:55:11;;;;;;;16.20;8.55;;;19.80;16.80;;;;;;5072670;28;20074;-79
2022/04/12 11:57:36;;;;;;;15.20;7.22;;;19.60;16.40;;;;;;5072758;28;20127;-79
2022/04/12 12:00:03;;;;;;;11.38;7.50;;;19.60;16.70;;;;;;5073284;28;20127;-79
2022/04/12 12:02:45;;;;;;;11.95;7.20;;;19.80;17.20;;;;;;5072811;28;20047;-79
2022/04/12 12:05:12;;;;;;;12.45;7.68;;;20.30;17.10;;;;;;5072330;28;20128;-80
2022/04/12 12:07:39;;;;;;;14.23;7.80;;;19.80;17.10;;;;;;5071280;28;20084;-79
2022/04/12 12:10:11;;;;;;;14.20;8.38;;;19.60;18.90;;;;;;5073090;28;20040;-79
2022/04/12 12:12:40;;;;;;;12.13;7.40;;;19.80;19.40;;;;;;5071512;28;20131;-79
2022/04/12 12:15:28;;;;;;;11.55;7.95;;;20.20;17.50;;;;;;5075772;28;20045;-79
2022/04/12 12:17:58;;;;;;;13.05;8.38;;;20.50;16.50;;;;;;5072921;28;20048;-79
2022/04/12 12:20:26;;;;;;;13.50;7.95;;;20.30;17.80;;;;;;5074333;28;20044;-79
2022/04/12 12:22:55;;;;;;;10.75;7.10;;;20.60;18.50;;;;;;5076944;28;20036;-79
2022/04/12 12:25:47;;;;;;;14.35;8.02;;;21.00;15.40;;;;;;5076397;28;20051;-79
2022/04/12 12:28:17;;;;;;;14.35;9.13;;;20.80;15.30;;;;;;5076358;28;20444;-79
2022/04/12 12:30:43;;;;;;;13.20;8.88;;;20.40;15.80;;;;;;5076417;28;20066;-79
2022/04/12 12:33:10;;;;;;;14.50;8.40;;;20.90;16.60;;;;;;5075300;28;20044;-79
2022/04/12 12:35:41;;;;;;;11.70;7.82;;;20.80;15.00;;;;;;5076350;28;20510;-79
2022/04/12 12:38:14;;;;;;;13.35;8.35;;;21.60;12.90;;;;;;5076908;28;20131;-79
2022/04/12 12:40:42;;;;;;;12.23;8.43;;;21.40;13.10;;;;;;5075050;28;20045;-79
2022/04/12 12:43:10;;;;;;;11.27;7.85;;;21.90;12.20;;;;;;5076207;28;20132;-79
2022/04/12 12:45:42;;;;;;;12.18;7.60;;;21.40;11.50;;;;;;5075919;28;20051;-79